sensor_id;sensor_type;location;lat;lon;timestamp;P1;durP1;ratioP1;P2;durP2;ratioP2
23242;SDS011;11790;49.578;11.214;2023-06-22T00:01:37;7.70;;;6.15;;
23242;SDS011;11790;49.578;11.214;2023-06-22T00:06:37;8.68;;;6.13;;
23242;SDS011;11790;49.578;11.214;2023-06-22T00:11:37;7.90;;;6.30;;
23242;SDS011;11790;49.578;11.214;2023-06-22T00:16:37;9.50;;;5.68;;
23242;SDS011;11790;49.578;11.214;2023-06-22T00:21:38;8.32;;;6.63;;
23242;SDS011;11790;49.578;11.214;2023-06-22T00:26:38;10.15;;;6.72;;
23242;SDS011;11790;49.578;11.214;2023-06-22T00:31:38;8.38;;;6.50;;
23242;SDS011;11790;49.578;11.214;2023-06-22T00:36:38;8.25;;;6.30;;
23242;SDS011;11790;49.578;11.214;2023-06-22T00:41:40;10.13;;;6.43;;
23242;SDS011;11790;49.578;11.214;2023-06-22T00:46:41;9.82;;;6.70;;
23242;SDS011;11790;49.578;11.214;2023-06-22T00:51:41;7.22;;;6.35;;
23242;SDS011;11790;49.578;11.214;2023-06-22T00:56:45;9.00;;;6.10;;
23242;SDS011;11790;49.578;11.214;2023-06-22T01:01:45;7.05;;;6.10;;
23242;SDS011;11790;49.578;11.214;2023-06-22T01:06:50;7.77;;;5.90;;
23242;SDS011;11790;49.578;11.214;2023-06-22T01:11:54;11.30;;;5.90;;
23242;SDS011;11790;49.578;11.214;2023-06-22T01:16:54;7.63;;;5.82;;
23242;SDS011;11790;49.578;11.214;2023-06-22T01:21:56;10.38;;;6.13;;
23242;SDS011;11790;49.578;11.214;2023-06-22T01:27:08;9.20;;;6.30;;
23242;SDS011;11790;49.578;11.214;2023-06-22T01:32:09;8.52;;;6.78;;
23242;SDS011;11790;49.578;11.214;2023-06-22T01:37:11;10.35;;;6.47;;
23242;SDS011;11790;49.578;11.214;2023-06-22T01:42:11;9.98;;;6.10;;
23242;SDS011;11790;49.578;11.214;2023-06-22T01:47:11;11.02;;;7.45;;
23242;SDS011;11790;49.578;11.214;2023-06-22T01:52:13;10.32;;;6.88;;
23242;SDS011;11790;49.578;11.214;2023-06-22T01:57:14;10.10;;;6.00;;
23242;SDS011;11790;49.578;11.214;2023-06-22T02:02:15;8.85;;;5.90;;
23242;SDS011;11790;49.578;11.214;2023-06-22T02:07:17;9.38;;;6.38;;
23242;SDS011;11790;49.578;11.214;2023-06-22T02:12:21;13.20;;;6.53;;
23242;SDS011;11790;49.578;11.214;2023-06-22T02:17:21;10.43;;;7.22;;
23242;SDS011;11790;49.578;11.214;2023-06-22T02:22:22;9.68;;;6.55;;
23242;SDS011;11790;49.578;11.214;2023-06-22T02:27:22;9.82;;;6.40;;
23242;SDS011;11790;49.578;11.214;2023-06-22T02:32:22;12.80;;;7.20;;
23242;SDS011;11790;49.578;11.214;2023-06-22T02:37:22;9.20;;;5.90;;
23242;SDS011;11790;49.578;11.214;2023-06-22T02:42:25;9.63;;;6.13;;
23242;SDS011;11790;49.578;11.214;2023-06-22T02:47:25;7.60;;;5.65;;
23242;SDS011;11790;49.578;11.214;2023-06-22T02:52:25;8.95;;;6.60;;
23242;SDS011;11790;49.578;11.214;2023-06-22T02:57:25;11.38;;;6.93;;
23242;SDS011;11790;49.578;11.214;2023-06-22T03:02:25;11.75;;;8.20;;
23242;SDS011;11790;49.578;11.214;2023-06-22T03:07:26;11.15;;;8.15;;
23242;SDS011;11790;49.578;11.214;2023-06-22T03:12:30;12.98;;;7.82;;
23242;SDS011;11790;49.578;11.214;2023-06-22T03:17:30;9.45;;;7.30;;
23242;SDS011;11790;49.578;11.214;2023-06-22T03:22:30;11.55;;;7.68;;
23242;SDS011;11790;49.578;11.214;2023-06-22T03:27:30;10.38;;;6.95;;
23242;SDS011;11790;49.578;11.214;2023-06-22T03:32:31;9.80;;;6.93;;
23242;SDS011;11790;49.578;11.214;2023-06-22T03:37:31;9.93;;;7.03;;
23242;SDS011;11790;49.578;11.214;2023-06-22T03:42:31;9.00;;;7.13;;
23242;SDS011;11790;49.578;11.214;2023-06-22T03:47:31;10.57;;;6.72;;
23242;SDS011;11790;49.578;11.214;2023-06-22T03:52:32;11.85;;;7.07;;
23242;SDS011;11790;49.578;11.214;2023-06-22T03:57:32;10.90;;;7.20;;
23242;SDS011;11790;49.578;11.214;2023-06-22T04:02:32;11.38;;;7.45;;
23242;SDS011;11790;49.578;11.214;2023-06-22T04:07:32;13.13;;;7.88;;
23242;SDS011;11790;49.578;11.214;2023-06-22T04:12:33;10.85;;;7.43;;
23242;SDS011;11790;49.578;11.214;2023-06-22T04:17:34;10.07;;;7.50;;
23242;SDS011;11790;49.578;11.214;2023-06-22T04:22:34;11.73;;;7.78;;
23242;SDS011;11790;49.578;11.214;2023-06-22T04:27:34;11.13;;;7.50;;
23242;SDS011;11790;49.578;11.214;2023-06-22T04:32:40;9.75;;;7.40;;
23242;SDS011;11790;49.578;11.214;2023-06-22T04:37:40;9.00;;;7.25;;
23242;SDS011;11790;49.578;11.214;2023-06-22T04:42:41;9.40;;;7.38;;
23242;SDS011;11790;49.578;11.214;2023-06-22T04:47:53;10.57;;;7.80;;
23242;SDS011;11790;49.578;11.214;2023-06-22T04:52:53;11.80;;;7.28;;
23242;SDS011;11790;49.578;11.214;2023-06-22T04:57:53;12.40;;;7.43;;
23242;SDS011;11790;49.578;11.214;2023-06-22T05:02:53;9.60;;;7.45;;
23242;SDS011;11790;49.578;11.214;2023-06-22T05:07:56;10.98;;;7.47;;
23242;SDS011;11790;49.578;11.214;2023-06-22T05:13:00;11.43;;;7.88;;
23242;SDS011;11790;49.578;11.214;2023-06-22T05:18:00;10.70;;;8.13;;
23242;SDS011;11790;49.578;11.214;2023-06-22T05:23:04;11.38;;;8.13;;
23242;SDS011;11790;49.578;11.214;2023-06-22T05:28:04;8.70;;;7.77;;
23242;SDS011;11790;49.578;11.214;2023-06-22T05:33:10;11.35;;;8.00;;
23242;SDS011;11790;49.578;11.214;2023-06-22T05:38:10;11.25;;;8.00;;
23242;SDS011;11790;49.578;11.214;2023-06-22T05:43:10;8.45;;;7.10;;
23242;SDS011;11790;49.578;11.214;2023-06-22T05:48:11;14.23;;;7.55;;
23242;SDS011;11790;49.578;11.214;2023-06-22T05:53:11;9.98;;;7.32;;
23242;SDS011;11790;49.578;11.214;2023-06-22T05:58:11;8.20;;;6.47;;
23242;SDS011;11790;49.578;11.214;2023-06-22T06:03:13;7.82;;;6.50;;
23242;SDS011;11790;49.578;11.214;2023-06-22T06:08:17;8.10;;;6.28;;
23242;SDS011;11790;49.578;11.214;2023-06-22T06:13:17;7.00;;;6.00;;
23242;SDS011;11790;49.578;11.214;2023-06-22T06:18:17;8.13;;;6.22;;
23242;SDS011;11790;49.578;11.214;2023-06-22T06:23:17;7.13;;;5.78;;
23242;SDS011;11790;49.578;11.214;2023-06-22T06:28:17;7.65;;;5.95;;
23242;SDS011;11790;49.578;11.214;2023-06-22T06:33:17;9.90;;;6.20;;
23242;SDS011;11790;49.578;11.214;2023-06-22T06:38:17;7.72;;;5.70;;
23242;SDS011;11790;49.578;11.214;2023-06-22T06:43:18;8.60;;;5.47;;
23242;SDS011;11790;49.578;11.214;2023-06-22T06:48:18;7.38;;;6.20;;
23242;SDS011;11790;49.578;11.214;2023-06-22T06:53:18;6.82;;;5.75;;
23242;SDS011;11790;49.578;11.214;2023-06-22T06:58:18;7.88;;;5.82;;
23242;SDS011;11790;49.578;11.214;2023-06-22T07:03:18;6.45;;;5.22;;
23242;SDS011;11790;49.578;11.214;2023-06-22T07:08:18;5.72;;;4.90;;
23242;SDS011;11790;49.578;11.214;2023-06-22T07:13:18;6.82;;;4.88;;
23242;SDS011;11790;49.578;11.214;2023-06-22T07:18:19;6.03;;;5.18;;
23242;SDS011;11790;49.578;11.214;2023-06-22T07:23:19;5.97;;;4.75;;
23242;SDS011;11790;49.578;11.214;2023-06-22T07:28:19;6.75;;;4.47;;
23242;SDS011;11790;49.578;11.214;2023-06-22T07:33:19;6.13;;;4.90;;
23242;SDS011;11790;49.578;11.214;2023-06-22T07:38:19;5.45;;;4.63;;
23242;SDS011;11790;49.578;11.214;2023-06-22T07:43:19;8.02;;;4.70;;
23242;SDS011;11790;49.578;11.214;2023-06-22T07:48:20;5.47;;;3.95;;
23242;SDS011;11790;49.578;11.214;2023-06-22T07:53:21;5.13;;;4.35;;
23242;SDS011;11790;49.578;11.214;2023-06-22T07:58:21;6.95;;;5.05;;
23242;SDS011;11790;49.578;11.214;2023-06-22T08:03:22;5.55;;;4.07;;
23242;SDS011;11790;49.578;11.214;2023-06-22T08:08:22;4.40;;;4.00;;
23242;SDS011;11790;49.578;11.214;2023-06-22T08:13:22;5.47;;;4.32;;
23242;SDS011;11790;49.578;11.214;2023-06-22T08:18:22;6.25;;;4.10;;
23242;SDS011;11790;49.578;11.214;2023-06-22T08:23:22;8.13;;;4.32;;
23242;SDS011;11790;49.578;11.214;2023-06-22T08:28:23;4.63;;;3.67;;
23242;SDS011;11790;49.578;11.214;2023-06-22T08:33:23;6.63;;;3.90;;
23242;SDS011;11790;49.578;11.214;2023-06-22T08:38:28;7.43;;;4.18;;
23242;SDS011;11790;49.578;11.214;2023-06-22T08:43:28;5.22;;;3.85;;
23242;SDS011;11790;49.578;11.214;2023-06-22T08:48:28;4.07;;;3.67;;
23242;SDS011;11790;49.578;11.214;2023-06-22T08:53:28;4.85;;;3.88;;
23242;SDS011;11790;49.578;11.214;2023-06-22T08:58:29;4.00;;;3.67;;
23242;SDS011;11790;49.578;11.214;2023-06-22T09:03:29;3.97;;;3.58;;
23242;SDS011;11790;49.578;11.214;2023-06-22T09:08:29;4.03;;;3.50;;
23242;SDS011;11790;49.578;11.214;2023-06-22T09:13:30;5.68;;;3.78;;
23242;SDS011;11790;49.578;11.214;2023-06-22T09:18:30;5.35;;;3.60;;
23242;SDS011;11790;49.578;11.214;2023-06-22T09:23:30;4.78;;;3.90;;
23242;SDS011;11790;49.578;11.214;2023-06-22T09:28:31;8.60;;;3.75;;
23242;SDS011;11790;49.578;11.214;2023-06-22T09:33:31;4.93;;;3.83;;
23242;SDS011;11790;49.578;11.214;2023-06-22T09:38:31;4.55;;;3.35;;
23242;SDS011;11790;49.578;11.214;2023-06-22T09:43:32;4.28;;;3.22;;
23242;SDS011;11790;49.578;11.214;2023-06-22T09:48:32;8.40;;;3.65;;
23242;SDS011;11790;49.578;11.214;2023-06-22T09:53:32;5.97;;;3.85;;
23242;SDS011;11790;49.578;11.214;2023-06-22T09:58:34;7.53;;;3.97;;
23242;SDS011;11790;49.578;11.214;2023-06-22T10:03:34;5.38;;;3.20;;
23242;SDS011;11790;49.578;11.214;2023-06-22T10:08:35;5.13;;;3.47;;
23242;SDS011;11790;49.578;11.214;2023-06-22T10:13:36;5.72;;;3.38;;
23242;SDS011;11790;49.578;11.214;2023-06-22T10:18:36;13.32;;;3.80;;
23242;SDS011;11790;49.578;11.214;2023-06-22T10:23:36;8.15;;;3.88;;
23242;SDS011;11790;49.578;11.214;2023-06-22T10:28:37;5.95;;;3.40;;
23242;SDS011;11790;49.578;11.214;2023-06-22T10:33:37;5.65;;;3.55;;
23242;SDS011;11790;49.578;11.214;2023-06-22T10:38:37;4.97;;;3.00;;
23242;SDS011;11790;49.578;11.214;2023-06-22T10:43:37;6.28;;;3.28;;
23242;SDS011;11790;49.578;11.214;2023-06-22T10:48:37;9.23;;;3.88;;
23242;SDS011;11790;49.578;11.214;2023-06-22T10:53:37;7.35;;;3.05;;
23242;SDS011;11790;49.578;11.214;2023-06-22T10:58:38;6.43;;;3.42;;
23242;SDS011;11790;49.578;11.214;2023-06-22T11:03:38;6.85;;;3.42;;
23242;SDS011;11790;49.578;11.214;2023-06-22T11:08:38;5.10;;;3.50;;
23242;SDS011;11790;49.578;11.214;2023-06-22T11:13:38;5.30;;;3.47;;
23242;SDS011;11790;49.578;11.214;2023-06-22T11:18:38;4.68;;;2.80;;
23242;SDS011;11790;49.578;11.214;2023-06-22T11:23:38;9.93;;;3.45;;
23242;SDS011;11790;49.578;11.214;2023-06-22T11:28:38;5.75;;;3.38;;
23242;SDS011;11790;49.578;11.214;2023-06-22T11:33:39;5.03;;;3.17;;
23242;SDS011;11790;49.578;11.214;2023-06-22T11:38:39;8.77;;;3.40;;
23242;SDS011;11790;49.578;11.214;2023-06-22T11:43:39;5.57;;;3.03;;
23242;SDS011;11790;49.578;11.214;2023-06-22T11:48:39;9.23;;;3.33;;
23242;SDS011;11790;49.578;11.214;2023-06-22T11:53:40;6.70;;;3.30;;
23242;SDS011;11790;49.578;11.214;2023-06-22T11:58:40;4.20;;;3.17;;
23242;SDS011;11790;49.578;11.214;2023-06-22T12:03:40;6.47;;;3.28;;
23242;SDS011;11790;49.578;11.214;2023-06-22T12:08:41;4.82;;;3.20;;
23242;SDS011;11790;49.578;11.214;2023-06-22T12:13:41;5.43;;;3.40;;
23242;SDS011;11790;49.578;11.214;2023-06-22T12:18:41;9.68;;;3.70;;
23242;SDS011;11790;49.578;11.214;2023-06-22T12:23:41;6.82;;;3.20;;
23242;SDS011;11790;49.578;11.214;2023-06-22T12:28:42;7.47;;;3.70;;
23242;SDS011;11790;49.578;11.214;2023-06-22T12:33:42;7.32;;;3.75;;
23242;SDS011;11790;49.578;11.214;2023-06-22T12:38:42;6.22;;;3.65;;
23242;SDS011;11790;49.578;11.214;2023-06-22T12:43:42;7.10;;;3.22;;
23242;SDS011;11790;49.578;11.214;2023-06-22T12:48:42;7.05;;;3.30;;
23242;SDS011;11790;49.578;11.214;2023-06-22T12:53:42;7.10;;;3.00;;
23242;SDS011;11790;49.578;11.214;2023-06-22T12:58:43;6.55;;;3.58;;
23242;SDS011;11790;49.578;11.214;2023-06-22T13:03:44;4.85;;;3.33;;
23242;SDS011;11790;49.578;11.214;2023-06-22T13:08:44;7.78;;;3.60;;
23242;SDS011;11790;49.578;11.214;2023-06-22T13:13:44;7.65;;;3.97;;
23242;SDS011;11790;49.578;11.214;2023-06-22T13:18:45;5.43;;;3.70;;
23242;SDS011;11790;49.578;11.214;2023-06-22T13:23:45;9.52;;;3.80;;
23242;SDS011;11790;49.578;11.214;2023-06-22T13:28:45;8.73;;;4.20;;
23242;SDS011;11790;49.578;11.214;2023-06-22T13:33:45;7.13;;;3.58;;
23242;SDS011;11790;49.578;11.214;2023-06-22T13:38:47;7.60;;;3.70;;
23242;SDS011;11790;49.578;11.214;2023-06-22T13:43:48;6.80;;;3.42;;
23242;SDS011;11790;49.578;11.214;2023-06-22T13:48:48;9.77;;;3.63;;
23242;SDS011;11790;49.578;11.214;2023-06-22T13:53:48;8.50;;;3.78;;
23242;SDS011;11790;49.578;11.214;2023-06-22T13:58:48;10.60;;;4.40;;
23242;SDS011;11790;49.578;11.214;2023-06-22T14:03:48;9.15;;;3.80;;
23242;SDS011;11790;49.578;11.214;2023-06-22T14:08:48;7.38;;;4.00;;
23242;SDS011;11790;49.578;11.214;2023-06-22T14:13:49;10.93;;;3.60;;
23242;SDS011;11790;49.578;11.214;2023-06-22T14:18:49;7.85;;;3.60;;
23242;SDS011;11790;49.578;11.214;2023-06-22T14:23:49;8.93;;;3.75;;
23242;SDS011;11790;49.578;11.214;2023-06-22T14:28:50;7.15;;;3.42;;
23242;SDS011;11790;49.578;11.214;2023-06-22T14:33:50;8.63;;;3.60;;
23242;SDS011;11790;49.578;11.214;2023-06-22T14:38:50;6.95;;;3.60;;
23242;SDS011;11790;49.578;11.214;2023-06-22T14:43:50;9.25;;;4.20;;
23242;SDS011;11790;49.578;11.214;2023-06-22T14:48:50;8.93;;;3.50;;
23242;SDS011;11790;49.578;11.214;2023-06-22T14:53:51;8.45;;;3.50;;
23242;SDS011;11790;49.578;11.214;2023-06-22T14:58:51;9.00;;;3.83;;
23242;SDS011;11790;49.578;11.214;2023-06-22T15:03:51;6.35;;;3.70;;
23242;SDS011;11790;49.578;11.214;2023-06-22T15:08:51;9.75;;;3.92;;
23242;SDS011;11790;49.578;11.214;2023-06-22T15:13:51;8.27;;;3.60;;
23242;SDS011;11790;49.578;11.214;2023-06-22T15:18:52;8.80;;;3.97;;
23242;SDS011;11790;49.578;11.214;2023-06-22T15:23:52;7.90;;;3.78;;
23242;SDS011;11790;49.578;11.214;2023-06-22T15:28:52;10.07;;;4.18;;
23242;SDS011;11790;49.578;11.214;2023-06-22T15:33:52;15.23;;;4.28;;
23242;SDS011;11790;49.578;11.214;2023-06-22T15:38:53;13.55;;;3.90;;
23242;SDS011;11790;49.578;11.214;2023-06-22T15:43:53;10.40;;;4.33;;
23242;SDS011;11790;49.578;11.214;2023-06-22T15:48:53;5.80;;;3.47;;
23242;SDS011;11790;49.578;11.214;2023-06-22T15:53:53;6.93;;;3.47;;
23242;SDS011;11790;49.578;11.214;2023-06-22T15:58:54;8.63;;;4.38;;
23242;SDS011;11790;49.578;11.214;2023-06-22T16:03:56;9.10;;;3.67;;
23242;SDS011;11790;49.578;11.214;2023-06-22T16:08:56;7.00;;;3.88;;
23242;SDS011;11790;49.578;11.214;2023-06-22T16:13:58;10.87;;;3.60;;
23242;SDS011;11790;49.578;11.214;2023-06-22T16:18:58;12.00;;;4.15;;
23242;SDS011;11790;49.578;11.214;2023-06-22T16:23:58;6.67;;;3.90;;
23242;SDS011;11790;49.578;11.214;2023-06-22T16:28:59;8.27;;;3.47;;
23242;SDS011;11790;49.578;11.214;2023-06-22T16:33:59;8.53;;;3.70;;
23242;SDS011;11790;49.578;11.214;2023-06-22T16:38:59;8.80;;;3.40;;
23242;SDS011;11790;49.578;11.214;2023-06-22T16:43:59;7.32;;;3.67;;
23242;SDS011;11790;49.578;11.214;2023-06-22T16:49:04;10.90;;;4.38;;
23242;SDS011;11790;49.578;11.214;2023-06-22T16:54:05;14.38;;;4.25;;
23242;SDS011;11790;49.578;11.214;2023-06-22T16:59:05;10.07;;;4.20;;
23242;SDS011;11790;49.578;11.214;2023-06-22T17:09:06;11.48;;;4.18;;
23242;SDS011;11790;49.578;11.214;2023-06-22T17:14:11;7.75;;;3.85;;
23242;SDS011;11790;49.578;11.214;2023-06-22T17:19:11;10.02;;;4.07;;
23242;SDS011;11790;49.578;11.214;2023-06-22T17:24:13;8.70;;;3.60;;
23242;SDS011;11790;49.578;11.214;2023-06-22T17:29:13;13.93;;;4.28;;
23242;SDS011;11790;49.578;11.214;2023-06-22T17:34:14;10.30;;;4.10;;
23242;SDS011;11790;49.578;11.214;2023-06-22T17:39:17;9.85;;;4.40;;
23242;SDS011;11790;49.578;11.214;2023-06-22T17:44:22;9.10;;;3.95;;
23242;SDS011;11790;49.578;11.214;2023-06-22T17:54:22;23.38;;;15.63;;
23242;SDS011;11790;49.578;11.214;2023-06-22T17:59:22;20.40;;;10.10;;
23242;SDS011;11790;49.578;11.214;2023-06-22T18:04:23;8.15;;;4.85;;
23242;SDS011;11790;49.578;11.214;2023-06-22T18:09:24;10.65;;;5.50;;
23242;SDS011;11790;49.578;11.214;2023-06-22T18:14:25;10.70;;;4.68;;
23242;SDS011;11790;49.578;11.214;2023-06-22T18:19:26;13.60;;;5.20;;
23242;SDS011;11790;49.578;11.214;2023-06-22T18:24:27;9.27;;;4.88;;
23242;SDS011;11790;49.578;11.214;2023-06-22T18:29:29;8.88;;;4.35;;
23242;SDS011;11790;49.578;11.214;2023-06-22T18:34:30;9.27;;;4.60;;
23242;SDS011;11790;49.578;11.214;2023-06-22T18:39:31;9.68;;;4.63;;
23242;SDS011;11790;49.578;11.214;2023-06-22T18:44:32;9.75;;;4.68;;
23242;SDS011;11790;49.578;11.214;2023-06-22T18:54:46;11.90;;;4.45;;
23242;SDS011;11790;49.578;11.214;2023-06-22T18:59:48;14.40;;;4.22;;
23242;SDS011;11790;49.578;11.214;2023-06-22T19:04:50;11.43;;;3.80;;
23242;SDS011;11790;49.578;11.214;2023-06-22T19:10:24;17.43;;;4.33;;
23242;SDS011;11790;49.578;11.214;2023-06-22T19:15:30;12.48;;;3.58;;
23242;SDS011;11790;49.578;11.214;2023-06-22T19:20:33;13.15;;;4.43;;
23242;SDS011;11790;49.578;11.214;2023-06-22T19:25:34;14.82;;;4.32;;
23242;SDS011;11790;49.578;11.214;2023-06-22T19:30:34;16.00;;;4.30;;
23242;SDS011;11790;49.578;11.214;2023-06-22T19:35:35;11.50;;;4.15;;
23242;SDS011;11790;49.578;11.214;2023-06-22T19:40:38;13.05;;;4.97;;
23242;SDS011;11790;49.578;11.214;2023-06-22T19:45:39;15.68;;;4.10;;
23242;SDS011;11790;49.578;11.214;2023-06-22T19:50:40;8.75;;;3.38;;
23242;SDS011;11790;49.578;11.214;2023-06-22T19:55:43;17.73;;;3.75;;
23242;SDS011;11790;49.578;11.214;2023-06-22T20:00:43;16.73;;;4.80;;
23242;SDS011;11790;49.578;11.214;2023-06-22T20:05:44;12.20;;;3.30;;
23242;SDS011;11790;49.578;11.214;2023-06-22T20:10:45;10.60;;;3.72;;
23242;SDS011;11790;49.578;11.214;2023-06-22T20:15:46;12.93;;;3.75;;
23242;SDS011;11790;49.578;11.214;2023-06-22T20:20:47;11.65;;;4.25;;
23242;SDS011;11790;49.578;11.214;2023-06-22T20:25:47;12.00;;;4.22;;
23242;SDS011;11790;49.578;11.214;2023-06-22T20:31:01;11.02;;;4.20;;
23242;SDS011;11790;49.578;11.214;2023-06-22T20:36:05;10.90;;;4.05;;
23242;SDS011;11790;49.578;11.214;2023-06-22T20:41:05;10.60;;;4.60;;
23242;SDS011;11790;49.578;11.214;2023-06-22T20:46:05;13.25;;;4.47;;
23242;SDS011;11790;49.578;11.214;2023-06-22T20:51:06;11.05;;;4.13;;
23242;SDS011;11790;49.578;11.214;2023-06-22T20:56:06;12.52;;;4.88;;
23242;SDS011;11790;49.578;11.214;2023-06-22T21:01:07;22.30;;;5.30;;
23242;SDS011;11790;49.578;11.214;2023-06-22T21:06:07;13.73;;;5.18;;
23242;SDS011;11790;49.578;11.214;2023-06-22T21:11:07;13.35;;;4.90;;
23242;SDS011;11790;49.578;11.214;2023-06-22T21:16:08;12.90;;;5.47;;
23242;SDS011;11790;49.578;11.214;2023-06-22T21:21:08;14.18;;;5.40;;
23242;SDS011;11790;49.578;11.214;2023-06-22T21:26:09;13.77;;;5.43;;
23242;SDS011;11790;49.578;11.214;2023-06-22T21:31:09;15.05;;;5.70;;
23242;SDS011;11790;49.578;11.214;2023-06-22T21:36:09;12.98;;;5.82;;
23242;SDS011;11790;49.578;11.214;2023-06-22T21:41:09;17.70;;;6.55;;
23242;SDS011;11790;49.578;11.214;2023-06-22T21:46:09;17.15;;;5.97;;
23242;SDS011;11790;49.578;11.214;2023-06-22T21:51:10;12.80;;;5.80;;
23242;SDS011;11790;49.578;11.214;2023-06-22T21:56:10;16.43;;;6.07;;
23242;SDS011;11790;49.578;11.214;2023-06-22T22:01:10;14.48;;;6.25;;
23242;SDS011;11790;49.578;11.214;2023-06-22T22:06:10;15.45;;;6.43;;
23242;SDS011;11790;49.578;11.214;2023-06-22T22:11:11;18.00;;;6.43;;
23242;SDS011;11790;49.578;11.214;2023-06-22T22:16:11;18.48;;;6.65;;
23242;SDS011;11790;49.578;11.214;2023-06-22T22:21:11;14.65;;;6.32;;
23242;SDS011;11790;49.578;11.214;2023-06-22T22:26:11;12.13;;;6.32;;
23242;SDS011;11790;49.578;11.214;2023-06-22T22:31:11;15.48;;;6.53;;
23242;SDS011;11790;49.578;11.214;2023-06-22T22:36:12;16.40;;;6.35;;
23242;SDS011;11790;49.578;11.214;2023-06-22T22:41:12;15.93;;;6.47;;
23242;SDS011;11790;49.578;11.214;2023-06-22T22:46:13;14.90;;;5.88;;
23242;SDS011;11790;49.578;11.214;2023-06-22T22:51:13;13.80;;;6.30;;
23242;SDS011;11790;49.578;11.214;2023-06-22T22:56:13;11.00;;;6.32;;
23242;SDS011;11790;49.578;11.214;2023-06-22T23:01:13;14.60;;;6.03;;
23242;SDS011;11790;49.578;11.214;2023-06-22T23:06:13;12.13;;;5.75;;
23242;SDS011;11790;49.578;11.214;2023-06-22T23:11:14;16.17;;;6.60;;
23242;SDS011;11790;49.578;11.214;2023-06-22T23:16:14;11.70;;;6.50;;
23242;SDS011;11790;49.578;11.214;2023-06-22T23:21:14;15.48;;;6.95;;
23242;SDS011;11790;49.578;11.214;2023-06-22T23:26:14;11.25;;;5.95;;
23242;SDS011;11790;49.578;11.214;2023-06-22T23:31:14;14.70;;;6.22;;
23242;SDS011;11790;49.578;11.214;2023-06-22T23:36:14;12.90;;;6.32;;
23242;SDS011;11790;49.578;11.214;2023-06-22T23:41:16;15.60;;;6.88;;
23242;SDS011;11790;49.578;11.214;2023-06-22T23:46:16;14.68;;;6.35;;
23242;SDS011;11790;49.578;11.214;2023-06-22T23:51:16;13.63;;;6.30;;
23242;SDS011;11790;49.578;11.214;2023-06-22T23:56:16;13.35;;;5.82;;
